createdAt,value
2018-09-20T00:00:37.229Z,21.72
2018-09-20T00:01:40.111Z,21.74
2018-09-20T00:02:47.088Z,21.75
2018-09-20T00:03:50.868Z,21.71
2018-09-20T00:04:36.566Z,21.65
2018-09-20T00:05:36.510Z,21.65
2018-09-20T00:06:36.773Z,21.64
2018-09-20T00:07:36.528Z,21.62
2018-09-20T00:08:36.886Z,21.61
2018-09-20T00:09:36.528Z,21.61
2018-09-20T00:10:36.497Z,21.58
2018-09-20T00:11:36.482Z,21.57
2018-09-20T00:12:36.754Z,21.58
2018-09-20T00:13:36.525Z,21.56
2018-09-20T00:14:36.508Z,21.56
2018-09-20T00:15:37.041Z,21.56
2018-09-20T00:16:36.576Z,21.57
2018-09-20T00:17:36.626Z,21.54
2018-09-20T00:18:36.515Z,21.57
2018-09-20T00:19:36.804Z,21.54
2018-09-20T00:20:36.531Z,21.53
2018-09-20T00:21:36.491Z,21.5
2018-09-20T00:22:36.590Z,21.5
2018-09-20T00:23:36.504Z,21.49
2018-09-20T00:24:36.607Z,21.47
2018-09-20T00:25:36.760Z,21.46
2018-09-20T00:26:36.501Z,21.43
2018-09-20T00:27:36.598Z,21.44
2018-09-20T00:28:36.573Z,21.43
2018-09-20T00:29:36.497Z,21.41
2018-09-20T00:30:36.527Z,21.4
2018-09-20T00:31:36.500Z,21.41
2018-09-20T00:32:36.614Z,21.4
2018-09-20T00:33:36.702Z,21.43
2018-09-20T00:34:36.543Z,21.4
2018-09-20T00:35:36.626Z,21.41
2018-09-20T00:36:36.540Z,21.39
2018-09-20T00:37:36.480Z,21.37
2018-09-20T00:38:36.543Z,21.37
2018-09-20T00:39:36.561Z,21.37
2018-09-20T00:40:36.681Z,21.4
2018-09-20T00:41:36.553Z,21.4
2018-09-20T00:42:36.644Z,21.41
2018-09-20T00:43:36.559Z,21.4
2018-09-20T00:44:37.148Z,21.39
2018-09-20T00:45:36.728Z,21.36
2018-09-20T00:46:36.534Z,21.36
2018-09-20T00:47:36.516Z,21.37
2018-09-20T00:48:36.592Z,21.36
2018-09-20T00:49:36.663Z,21.34
2018-09-20T00:50:37.778Z,21.33
2018-09-20T00:51:36.702Z,21.33
2018-09-20T00:52:37.256Z,21.3
2018-09-20T00:53:36.531Z,21.32
2018-09-20T00:54:38.355Z,21.32
2018-09-20T00:55:36.613Z,21.29
2018-09-20T00:56:36.591Z,21.29
2018-09-20T00:57:36.504Z,21.29
2018-09-20T00:58:36.483Z,21.27
2018-09-20T00:59:36.629Z,21.26
2018-09-20T01:00:38.961Z,21.23
2018-09-20T01:01:36.525Z,21.23
2018-09-20T01:02:36.478Z,21.23
2018-09-20T01:03:36.614Z,21.2
2018-09-20T01:04:36.502Z,21.22
2018-09-20T01:05:40.804Z,21.22
2018-09-20T01:06:36.531Z,21.2
2018-09-20T01:07:37.699Z,21.19
2018-09-20T01:08:38.329Z,21.22
2018-09-20T01:09:38.374Z,21.22
2018-09-20T01:10:38.735Z,21.22
2018-09-20T01:11:36.505Z,21.22
2018-09-20T01:12:36.576Z,21.22
2018-09-20T01:13:36.586Z,21.22
2018-09-20T01:14:36.474Z,21.19
2018-09-20T01:15:36.536Z,21.15
2018-09-20T01:16:36.532Z,21.15
2018-09-20T01:17:36.489Z,21.16
2018-09-20T01:18:36.583Z,21.12
2018-09-20T01:19:36.591Z,21.13
2018-09-20T01:20:36.476Z,21.1
2018-09-20T01:21:36.504Z,21.1
2018-09-20T01:22:36.491Z,21.06
2018-09-20T01:23:36.506Z,21.05
2018-09-20T01:24:36.525Z,21.03
2018-09-20T01:25:36.506Z,21.05
2018-09-20T01:26:36.533Z,21.03
2018-09-20T01:27:36.499Z,21.02
2018-09-20T01:28:36.482Z,21.03
2018-09-20T01:29:36.663Z,21.05
2018-09-20T01:30:36.588Z,21.03
2018-09-20T01:31:36.741Z,21.02
2018-09-20T01:32:36.550Z,21.05
2018-09-20T01:33:36.521Z,21.03
2018-09-20T01:34:36.459Z,21.05
2018-09-20T01:35:36.771Z,21.03
2018-09-20T01:36:36.900Z,21.03
2018-09-20T01:37:36.481Z,21.05
2018-09-20T01:38:36.547Z,21.02
2018-09-20T01:39:36.493Z,21.01
2018-09-20T01:40:36.496Z,21.01
2018-09-20T01:41:36.562Z,21.02
2018-09-20T01:42:36.567Z,20.99
2018-09-20T01:43:36.559Z,21.02
2018-09-20T01:44:36.941Z,21.01
2018-09-20T01:45:36.563Z,20.99
2018-09-20T01:46:36.467Z,20.98
2018-09-20T01:47:36.507Z,20.96
2018-09-20T01:48:36.709Z,20.92
2018-09-20T01:49:36.545Z,20.91
2018-09-20T01:50:36.510Z,20.89
2018-09-20T01:51:36.583Z,20.88
2018-09-20T01:52:36.496Z,20.82
2018-09-20T01:53:36.571Z,20.85
2018-09-20T01:54:36.549Z,20.84
2018-09-20T01:55:36.496Z,20.81
2018-09-20T01:56:36.506Z,20.79
2018-09-20T01:57:36.543Z,20.79
2018-09-20T01:58:36.469Z,20.79
2018-09-20T01:59:36.583Z,20.75
2018-09-20T02:00:36.680Z,20.77
2018-09-20T02:01:36.497Z,20.77
2018-09-20T02:02:36.485Z,20.74
2018-09-20T02:03:36.515Z,20.72
2018-09-20T02:04:36.658Z,20.7
2018-09-20T02:05:36.665Z,20.68
2018-09-20T02:06:36.487Z,20.71
2018-09-20T02:07:36.687Z,20.71
2018-09-20T02:08:36.491Z,20.7
2018-09-20T02:09:36.478Z,20.7
2018-09-20T02:10:36.516Z,20.72
2018-09-20T02:11:36.635Z,20.71
2018-09-20T02:12:36.630Z,20.71
2018-09-20T02:13:38.713Z,20.72
2018-09-20T02:14:36.493Z,20.7
2018-09-20T02:15:36.476Z,20.71
2018-09-20T02:16:36.743Z,20.7
2018-09-20T02:17:36.575Z,20.67
2018-09-20T02:18:36.473Z,20.65
2018-09-20T02:19:36.584Z,20.64
2018-09-20T02:20:36.489Z,20.61
2018-09-20T02:21:36.617Z,20.58
2018-09-20T02:22:36.481Z,20.58
2018-09-20T02:23:36.465Z,20.57
2018-09-20T02:24:36.996Z,20.58
2018-09-20T02:25:36.503Z,20.57
2018-09-20T02:26:36.571Z,20.54
2018-09-20T02:27:36.457Z,20.52
2018-09-20T02:28:36.746Z,20.5
2018-09-20T02:29:36.479Z,20.52
2018-09-20T02:30:36.628Z,20.5
2018-09-20T02:31:36.500Z,20.47
2018-09-20T02:32:36.488Z,20.46
2018-09-20T02:33:36.558Z,20.47
2018-09-20T02:34:36.559Z,20.47
2018-09-20T02:35:36.531Z,20.46
2018-09-20T02:36:36.571Z,20.47
2018-09-20T02:37:36.487Z,20.46
2018-09-20T02:38:36.518Z,20.43
2018-09-20T02:39:36.459Z,20.44
2018-09-20T02:40:36.579Z,20.44
2018-09-20T02:41:36.503Z,20.46
2018-09-20T02:42:36.547Z,20.46
2018-09-20T02:43:36.510Z,20.44
2018-09-20T02:44:36.534Z,20.46
2018-09-20T02:45:36.466Z,20.44
2018-09-20T02:46:36.523Z,20.43
2018-09-20T02:47:36.473Z,20.41
2018-09-20T02:48:36.705Z,20.41
2018-09-20T02:49:36.466Z,20.43
2018-09-20T02:50:36.475Z,20.44
2018-09-20T02:51:36.463Z,20.41
2018-09-20T02:52:36.453Z,20.43
2018-09-20T02:53:36.496Z,20.41
2018-09-20T02:54:36.593Z,20.4
2018-09-20T02:55:36.551Z,20.4
2018-09-20T02:56:36.497Z,20.37
2018-09-20T02:57:36.446Z,20.4
2018-09-20T02:58:36.635Z,20.4
2018-09-20T02:59:36.477Z,20.39
2018-09-20T03:00:36.510Z,20.36
2018-09-20T03:01:36.545Z,20.34
2018-09-20T03:02:36.483Z,20.34
2018-09-20T03:03:36.736Z,20.32
2018-09-20T03:04:36.592Z,20.36
2018-09-20T03:05:36.708Z,20.3
2018-09-20T03:06:36.463Z,20.3
2018-09-20T03:07:36.614Z,20.3
2018-09-20T03:08:36.522Z,20.32
2018-09-20T03:09:36.447Z,20.3
2018-09-20T03:10:36.571Z,20.27
2018-09-20T03:11:36.527Z,20.24
2018-09-20T03:12:36.541Z,20.27
2018-09-20T03:13:36.674Z,20.23
2018-09-20T03:14:36.470Z,20.22
2018-09-20T03:15:36.512Z,20.22
2018-09-20T03:16:36.628Z,20.19
2018-09-20T03:17:36.521Z,20.16
2018-09-20T03:18:36.794Z,20.15
2018-09-20T03:19:36.492Z,20.13
2018-09-20T03:20:36.467Z,20.06
2018-09-20T03:21:37.283Z,20.05
2018-09-20T03:22:36.487Z,20.05
2018-09-20T03:23:36.584Z,20.04
2018-09-20T03:24:36.498Z,19.99
2018-09-20T03:25:36.535Z,19.99
2018-09-20T03:26:36.553Z,19.98
2018-09-20T03:27:36.553Z,19.95
2018-09-20T03:28:37.247Z,19.95
2018-09-20T03:29:36.559Z,19.93
2018-09-20T03:30:36.957Z,19.89
2018-09-20T03:31:37.975Z,19.92
2018-09-20T03:32:36.510Z,19.89
2018-09-20T03:33:36.476Z,19.88
2018-09-20T03:34:36.462Z,19.92
2018-09-20T03:35:36.456Z,19.89
2018-09-20T03:36:36.657Z,19.88
2018-09-20T03:37:36.481Z,19.82
2018-09-20T03:38:36.477Z,19.84
2018-09-20T03:39:36.657Z,19.82
2018-09-20T03:40:37.848Z,19.78
2018-09-20T03:41:36.480Z,19.77
2018-09-20T03:42:36.561Z,19.77
2018-09-20T03:43:36.468Z,19.75
2018-09-20T03:44:36.547Z,19.72
2018-09-20T03:45:36.772Z,19.68
2018-09-20T03:46:36.468Z,19.67
2018-09-20T03:47:36.508Z,19.7
2018-09-20T03:48:36.531Z,19.67
2018-09-20T03:49:36.559Z,19.64
2018-09-20T03:50:36.578Z,19.6
2018-09-20T03:51:36.678Z,19.64
2018-09-20T03:52:36.647Z,19.61
2018-09-20T03:53:36.477Z,19.61
2018-09-20T03:54:36.550Z,19.62
2018-09-20T03:55:36.520Z,19.64
2018-09-20T03:56:36.511Z,19.65
2018-09-20T03:57:36.621Z,19.68
2018-09-20T03:58:36.472Z,19.67
2018-09-20T03:59:36.505Z,19.68
2018-09-20T04:00:36.453Z,19.68
2018-09-20T04:01:36.604Z,19.7
2018-09-20T04:02:36.468Z,19.7
2018-09-20T04:03:36.496Z,19.71
2018-09-20T04:04:36.550Z,19.7
2018-09-20T04:05:36.466Z,19.7
2018-09-20T04:06:36.546Z,19.68
2018-09-20T04:07:36.438Z,19.72
2018-09-20T04:08:36.448Z,19.71
2018-09-20T04:09:36.740Z,19.7
2018-09-20T04:10:36.438Z,19.7
2018-09-20T04:11:36.460Z,19.68
2018-09-20T04:12:36.533Z,19.68
2018-09-20T04:13:36.451Z,19.68
2018-09-20T04:14:36.456Z,19.67
2018-09-20T04:15:36.495Z,19.67
2018-09-20T04:16:36.610Z,19.68
2018-09-20T04:17:36.554Z,19.67
2018-09-20T04:18:36.624Z,19.67
2018-09-20T04:19:36.421Z,19.64
2018-09-20T04:20:36.585Z,19.68
2018-09-20T04:21:36.474Z,19.71
2018-09-20T04:22:36.895Z,19.67
2018-09-20T04:23:36.593Z,19.65
2018-09-20T04:24:36.590Z,19.65
2018-09-20T04:25:36.638Z,19.64
2018-09-20T04:26:36.469Z,19.64
2018-09-20T04:27:36.473Z,19.65
2018-09-20T04:28:36.615Z,19.67
2018-09-20T04:29:36.668Z,19.67
2018-09-20T04:30:36.682Z,19.64
2018-09-20T04:31:36.607Z,19.64
2018-09-20T04:32:37.020Z,19.58
2018-09-20T04:33:36.591Z,19.57
2018-09-20T04:34:36.470Z,19.56
2018-09-20T04:35:36.602Z,19.57
2018-09-20T04:36:36.540Z,19.54
2018-09-20T04:37:36.486Z,19.56
2018-09-20T04:38:36.509Z,19.54
2018-09-20T04:39:36.998Z,19.53
2018-09-20T04:40:36.545Z,19.54
2018-09-20T04:41:36.474Z,19.51
2018-09-20T04:42:36.434Z,19.49
2018-09-20T04:43:36.436Z,19.5
2018-09-20T04:44:36.467Z,19.49
2018-09-20T04:45:36.536Z,19.47
2018-09-20T04:46:36.506Z,19.46
2018-09-20T04:47:36.499Z,19.46
2018-09-20T04:48:36.443Z,19.49
2018-09-20T04:49:36.524Z,19.49
2018-09-20T04:50:36.520Z,19.46
2018-09-20T04:51:36.477Z,19.47
2018-09-20T04:52:36.520Z,19.46
2018-09-20T04:53:36.452Z,19.44
2018-09-20T04:54:36.421Z,19.42
2018-09-20T04:55:36.482Z,19.4
2018-09-20T04:56:36.431Z,19.39
2018-09-20T04:57:36.471Z,19.4
2018-09-20T04:58:36.428Z,19.37
2018-09-20T04:59:36.533Z,19.33
2018-09-20T05:00:36.680Z,19.3
2018-09-20T05:01:36.523Z,19.3
2018-09-20T05:02:36.418Z,19.3
2018-09-20T05:03:36.756Z,19.25
2018-09-20T05:04:36.680Z,19.23
2018-09-20T05:05:36.421Z,19.23
2018-09-20T05:06:36.500Z,19.25
2018-09-20T05:07:36.460Z,19.26
2018-09-20T05:08:36.904Z,19.25
2018-09-20T05:09:36.814Z,19.23
2018-09-20T05:10:36.672Z,19.23
2018-09-20T05:11:36.498Z,19.25
2018-09-20T05:12:36.797Z,19.25
2018-09-20T05:13:36.461Z,19.22
2018-09-20T05:14:36.734Z,19.22
2018-09-20T05:15:36.463Z,19.23
2018-09-20T05:16:36.670Z,19.23
2018-09-20T05:17:36.517Z,19.22
2018-09-20T05:18:36.427Z,19.19
2018-09-20T05:19:36.454Z,19.17
2018-09-20T05:20:36.466Z,19.21
2018-09-20T05:21:36.436Z,19.16
2018-09-20T05:22:36.487Z,19.19
2018-09-20T05:23:36.487Z,19.15
2018-09-20T05:24:36.421Z,19.15
2018-09-20T05:25:36.429Z,19.15
2018-09-20T05:26:36.441Z,19.13
2018-09-20T05:27:36.556Z,19.13
2018-09-20T05:28:36.449Z,19.13
2018-09-20T05:29:36.457Z,19.13
2018-09-20T05:30:36.478Z,19.12
2018-09-20T05:31:36.470Z,19.12
2018-09-20T05:32:36.481Z,19.15
2018-09-20T05:33:36.447Z,19.16
2018-09-20T05:34:36.709Z,19.16
2018-09-20T05:35:36.801Z,19.21
2018-09-20T05:36:36.436Z,19.23
2018-09-20T05:37:36.422Z,19.21
2018-09-20T05:38:36.423Z,19.25
2018-09-20T05:39:36.578Z,19.22
2018-09-20T05:40:36.492Z,19.22
2018-09-20T05:41:37.227Z,19.25
2018-09-20T05:42:36.495Z,19.25
2018-09-20T05:43:36.888Z,19.26
2018-09-20T05:44:36.423Z,19.27
2018-09-20T05:45:36.607Z,19.27
2018-09-20T05:46:36.541Z,19.3
2018-09-20T05:47:36.500Z,19.26
2018-09-20T05:48:36.488Z,19.27
2018-09-20T05:49:36.432Z,19.27
2018-09-20T05:50:36.564Z,19.26
2018-09-20T05:51:36.473Z,19.27
2018-09-20T05:52:36.443Z,19.26
2018-09-20T05:53:36.409Z,19.26
2018-09-20T05:54:36.537Z,19.26
2018-09-20T05:55:36.672Z,19.26
2018-09-20T05:56:36.503Z,19.27
2018-09-20T05:57:36.450Z,19.27
2018-09-20T05:58:36.626Z,19.29
2018-09-20T05:59:36.665Z,19.26
2018-09-20T06:00:36.499Z,19.27
2018-09-20T06:01:36.500Z,19.23
2018-09-20T06:02:36.528Z,19.26
2018-09-20T06:03:36.497Z,19.25
2018-09-20T06:04:36.567Z,19.22
2018-09-20T06:05:36.579Z,19.23
2018-09-20T06:06:36.532Z,19.25
2018-09-20T06:07:36.444Z,19.25
2018-09-20T06:08:36.490Z,19.26
2018-09-20T06:09:36.449Z,19.27
2018-09-20T06:10:36.498Z,19.25
2018-09-20T06:11:37.119Z,19.23
2018-09-20T06:12:36.480Z,19.29
2018-09-20T06:13:36.439Z,19.26
2018-09-20T06:14:36.469Z,19.29
2018-09-20T06:15:36.544Z,19.29
2018-09-20T06:16:36.641Z,19.29
2018-09-20T06:17:36.545Z,19.3
2018-09-20T06:18:36.557Z,19.32
2018-09-20T06:19:36.493Z,19.3
2018-09-20T06:20:36.490Z,19.32
2018-09-20T06:21:36.510Z,19.33
2018-09-20T06:22:36.479Z,19.36
2018-09-20T06:23:36.492Z,19.36
2018-09-20T06:24:36.497Z,19.36
2018-09-20T06:25:36.715Z,19.36
2018-09-20T06:26:36.495Z,19.37
2018-09-20T06:27:38.515Z,19.36
2018-09-20T06:28:36.455Z,19.37
2018-09-20T06:29:36.567Z,19.37
2018-09-20T06:30:36.676Z,19.36
2018-09-20T06:31:36.436Z,19.37
2018-09-20T06:32:36.888Z,19.36
2018-09-20T06:33:36.711Z,19.39
2018-09-20T06:34:37.899Z,19.36
2018-09-20T06:35:36.664Z,19.36
2018-09-20T06:36:36.735Z,19.39
2018-09-20T06:37:36.418Z,19.39
2018-09-20T06:38:36.606Z,19.39
2018-09-20T06:39:36.400Z,19.37
2018-09-20T06:40:36.441Z,19.4
2018-09-20T06:41:36.415Z,19.4
2018-09-20T06:42:36.524Z,19.42
2018-09-20T06:43:36.419Z,19.44
2018-09-20T06:44:36.488Z,19.49
2018-09-20T06:45:36.571Z,19.5
2018-09-20T06:46:36.610Z,19.5
2018-09-20T06:47:36.461Z,19.53
2018-09-20T06:48:36.404Z,19.51
2018-09-20T06:49:36.422Z,19.56
2018-09-20T06:50:36.430Z,19.56
2018-09-20T06:51:36.389Z,19.54
2018-09-20T06:52:36.440Z,19.57
2018-09-20T06:53:36.432Z,19.6
2018-09-20T06:54:36.432Z,19.62
2018-09-20T06:55:36.491Z,19.64
2018-09-20T06:56:36.678Z,19.67
2018-09-20T06:57:36.429Z,19.7
2018-09-20T06:58:36.428Z,19.71
2018-09-20T06:59:36.474Z,19.75
2018-09-20T07:00:36.413Z,19.75
2018-09-20T07:01:36.408Z,19.82
2018-09-20T07:02:36.506Z,19.84
2018-09-20T07:03:36.504Z,19.88
2018-09-20T07:04:36.436Z,19.88
2018-09-20T07:05:36.530Z,19.88
2018-09-20T07:06:36.389Z,19.93
2018-09-20T07:07:36.531Z,19.96
2018-09-20T07:08:36.531Z,19.99
2018-09-20T07:09:36.461Z,20.01
2018-09-20T07:10:36.475Z,20.05
2018-09-20T07:11:36.417Z,20.08
2018-09-20T07:12:36.417Z,20.11
2018-09-20T07:13:36.533Z,20.13
2018-09-20T07:14:36.434Z,20.17
2018-09-20T07:15:36.433Z,20.2
2018-09-20T07:16:36.583Z,20.22
2018-09-20T07:17:36.546Z,20.24
2018-09-20T07:18:36.467Z,20.3
2018-09-20T07:19:36.435Z,20.3
2018-09-20T07:20:36.776Z,20.32
2018-09-20T07:21:36.643Z,20.33
2018-09-20T07:22:38.107Z,20.37
2018-09-20T07:23:36.587Z,20.39
2018-09-20T07:24:36.876Z,20.43
2018-09-20T07:25:36.608Z,20.46
2018-09-20T07:26:36.424Z,20.46
2018-09-20T07:27:36.543Z,20.5
2018-09-20T07:28:36.588Z,20.54
2018-09-20T07:29:36.465Z,20.57
2018-09-20T07:30:36.443Z,20.6
2018-09-20T07:31:37.743Z,20.64
2018-09-20T07:32:36.662Z,20.65
2018-09-20T07:33:36.589Z,20.68
2018-09-20T07:34:36.516Z,20.74
2018-09-20T07:35:36.420Z,20.78
2018-09-20T07:36:36.457Z,20.78
2018-09-20T07:37:37.493Z,20.84
2018-09-20T07:38:36.695Z,20.87
2018-09-20T07:39:36.367Z,20.89
2018-09-20T07:40:37.358Z,20.92
2018-09-20T07:41:36.539Z,20.95
2018-09-20T07:42:37.138Z,20.95
2018-09-20T07:43:36.784Z,20.99
2018-09-20T07:44:36.530Z,21.02
2018-09-20T07:45:36.486Z,21.03
2018-09-20T07:46:36.609Z,21.05
2018-09-20T07:47:36.466Z,21.1
2018-09-20T07:48:36.606Z,21.13
2018-09-20T07:49:36.579Z,21.16
2018-09-20T07:50:36.450Z,21.19
2018-09-20T07:51:36.380Z,21.22
2018-09-20T07:52:36.842Z,21.26
2018-09-20T07:53:36.742Z,21.24
2018-09-20T07:54:36.462Z,21.23
2018-09-20T07:55:36.765Z,21.19
2018-09-20T07:56:36.595Z,21.22
2018-09-20T07:57:36.445Z,21.22
2018-09-20T07:58:36.410Z,21.24
2018-09-20T07:59:36.375Z,21.17
2018-09-20T08:00:36.523Z,21.2
2018-09-20T08:01:36.805Z,21.26
2018-09-20T08:02:36.575Z,21.3
2018-09-20T08:03:36.445Z,21.34
2018-09-20T08:04:36.392Z,21.37
2018-09-20T08:05:36.643Z,21.41
2018-09-20T08:06:36.461Z,21.43
2018-09-20T08:07:36.423Z,21.5
2018-09-20T08:08:36.508Z,21.51
2018-09-20T08:09:36.445Z,21.58
2018-09-20T08:10:36.561Z,21.61
2018-09-20T08:11:36.452Z,21.64
2018-09-20T08:12:36.426Z,21.64
2018-09-20T08:13:36.544Z,21.68
2018-09-20T08:14:36.582Z,21.71
2018-09-20T08:15:36.493Z,21.77
2018-09-20T08:16:36.411Z,21.78
2018-09-20T08:17:36.489Z,21.78
2018-09-20T08:18:36.373Z,21.78
2018-09-20T08:19:36.388Z,21.81
2018-09-20T08:20:36.560Z,21.86
2018-09-20T08:21:36.775Z,21.94
2018-09-20T08:22:36.554Z,21.98
2018-09-20T08:23:36.470Z,22.01
2018-09-20T08:24:36.464Z,22.05
2018-09-20T08:25:36.393Z,22.12
2018-09-20T08:26:36.594Z,22.13
2018-09-20T08:27:36.622Z,22.2
2018-09-20T08:28:36.416Z,22.22
2018-09-20T08:29:36.411Z,22.24
2018-09-20T08:30:36.416Z,22.29
2018-09-20T08:31:36.374Z,22.34
2018-09-20T08:32:36.394Z,22.36
2018-09-20T08:33:36.456Z,22.34
2018-09-20T08:34:36.397Z,22.33
2018-09-20T08:35:36.394Z,22.37
2018-09-20T08:36:36.395Z,22.41
2018-09-20T08:37:36.621Z,22.5
2018-09-20T08:38:36.544Z,22.57
2018-09-20T08:39:36.397Z,22.56
2018-09-20T08:40:36.454Z,22.53
2018-09-20T08:41:36.386Z,22.56
2018-09-20T08:42:36.579Z,22.64
2018-09-20T08:43:36.525Z,22.64
2018-09-20T08:44:36.432Z,22.72
2018-09-20T08:45:36.549Z,22.79
2018-09-20T08:46:36.548Z,22.84
2018-09-20T08:47:36.527Z,22.91
2018-09-20T08:48:36.370Z,22.92
2018-09-20T08:49:36.389Z,23.01
2018-09-20T08:50:36.433Z,23.05
2018-09-20T08:51:36.385Z,23.09
2018-09-20T08:52:36.433Z,23.16
2018-09-20T08:53:36.688Z,23.22
2018-09-20T08:54:36.387Z,23.23
2018-09-20T08:55:36.443Z,23.27
2018-09-20T08:56:36.414Z,23.33
2018-09-20T08:57:36.554Z,23.36
2018-09-20T08:58:36.375Z,23.39
2018-09-20T08:59:36.394Z,23.41
2018-09-20T09:00:36.410Z,23.46
2018-09-20T09:01:36.372Z,23.44
2018-09-20T09:02:36.392Z,23.46
2018-09-20T09:03:36.399Z,23.46
2018-09-20T09:04:36.477Z,23.48
2018-09-20T09:05:36.362Z,23.53
2018-09-20T09:06:36.697Z,23.57
2018-09-20T09:07:36.410Z,23.58
2018-09-20T09:08:36.399Z,23.64
2018-09-20T09:09:36.715Z,23.71
2018-09-20T09:10:36.452Z,23.77
2018-09-20T09:11:38.234Z,23.82
2018-09-20T09:12:36.430Z,23.84
2018-09-20T09:13:36.832Z,23.88
2018-09-20T09:14:36.383Z,23.89
2018-09-20T09:15:36.731Z,23.92
2018-09-20T09:16:36.354Z,23.96
2018-09-20T09:17:36.569Z,24.01
2018-09-20T09:18:36.570Z,23.99
2018-09-20T09:19:36.816Z,23.99
2018-09-20T09:20:36.465Z,24.05
2018-09-20T09:21:36.421Z,24.06
2018-09-20T09:22:36.487Z,24.05
2018-09-20T09:23:36.503Z,24.1
2018-09-20T09:24:36.876Z,24.1
2018-09-20T09:25:36.436Z,24.15
2018-09-20T09:26:36.516Z,24.17
2018-09-20T09:27:36.391Z,24.23
2018-09-20T09:28:36.616Z,24.29
2018-09-20T09:29:36.505Z,24.26
2018-09-20T09:30:36.415Z,24.33
2018-09-20T09:31:36.380Z,24.32
2018-09-20T09:32:36.533Z,24.43
2018-09-20T09:33:36.478Z,24.47
2018-09-20T09:34:36.672Z,24.54
2018-09-20T09:35:36.577Z,24.58
2018-09-20T09:36:36.461Z,24.54
2018-09-20T09:37:37.631Z,24.53
2018-09-20T09:38:36.587Z,24.57
2018-09-20T09:39:36.606Z,24.63
2018-09-20T09:40:36.832Z,24.61
2018-09-20T09:41:36.511Z,24.58
2018-09-20T09:42:36.623Z,24.57
2018-09-20T09:43:36.527Z,24.63
2018-09-20T09:44:36.527Z,24.65
2018-09-20T09:45:36.542Z,24.67
2018-09-20T09:46:36.473Z,24.68
2018-09-20T09:47:36.658Z,24.74
2018-09-20T09:48:36.662Z,24.81
2018-09-20T09:49:36.672Z,24.82
2018-09-20T09:50:36.582Z,24.82
2018-09-20T09:51:36.405Z,24.85
2018-09-20T09:52:36.481Z,24.89
2018-09-20T09:53:36.708Z,24.89
2018-09-20T09:54:36.627Z,24.91
2018-09-20T09:55:36.376Z,25.02
2018-09-20T09:56:36.639Z,25.08
2018-09-20T09:57:36.536Z,25.13
2018-09-20T09:58:37.148Z,25.05
2018-09-20T09:59:36.599Z,25.05
2018-09-20T10:00:36.657Z,25.05
2018-09-20T10:01:36.433Z,25.15
2018-09-20T10:02:37.036Z,25.23
2018-09-20T10:03:36.408Z,25.22
2018-09-20T10:04:36.454Z,25.16
2018-09-20T10:05:36.594Z,25.16
2018-09-20T10:06:36.671Z,25.25
2018-09-20T10:07:36.597Z,25.29
2018-09-20T10:08:36.487Z,25.37
2018-09-20T10:09:36.718Z,25.47
2018-09-20T10:10:36.517Z,25.53
2018-09-20T10:11:36.440Z,25.53
2018-09-20T10:12:36.395Z,25.57
2018-09-20T10:13:36.851Z,25.65
2018-09-20T10:14:36.545Z,25.67
2018-09-20T10:15:36.407Z,25.74
2018-09-20T10:16:36.397Z,25.77
2018-09-20T10:17:36.483Z,25.78
2018-09-20T10:18:36.334Z,25.74
2018-09-20T10:19:36.593Z,25.78
2018-09-20T10:20:36.458Z,25.87
2018-09-20T10:21:36.594Z,25.91
2018-09-20T10:22:36.683Z,25.93
2018-09-20T10:23:36.947Z,25.92
2018-09-20T10:24:36.420Z,25.92
2018-09-20T10:25:36.672Z,25.95
2018-09-20T10:26:36.375Z,25.93
2018-09-20T10:27:36.365Z,25.98
2018-09-20T10:28:36.402Z,26.03
2018-09-20T10:29:36.629Z,26.06
2018-09-20T10:30:36.445Z,26.12
2018-09-20T10:31:36.414Z,26.15
2018-09-20T10:32:36.351Z,26.23
2018-09-20T10:33:36.433Z,26.25
2018-09-20T10:34:36.780Z,26.26
2018-09-20T10:35:36.576Z,26.3
2018-09-20T10:36:36.551Z,26.37
2018-09-20T10:37:36.550Z,26.4
2018-09-20T10:38:36.644Z,26.43
2018-09-20T10:39:36.925Z,26.46
2018-09-20T10:40:36.515Z,26.5
2018-09-20T10:41:36.713Z,26.5
2018-09-20T10:42:36.398Z,26.54
2018-09-20T10:43:36.728Z,26.57
2018-09-20T10:44:36.892Z,26.6
2018-09-20T10:45:36.474Z,26.62
2018-09-20T10:46:36.560Z,26.64
2018-09-20T10:47:36.351Z,26.67
2018-09-20T10:48:36.456Z,26.75
2018-09-20T10:49:36.346Z,26.79
2018-09-20T10:50:36.681Z,26.81
2018-09-20T10:51:36.444Z,26.79
2018-09-20T10:52:36.489Z,26.75
2018-09-20T10:53:36.537Z,26.72
2018-09-20T10:54:36.757Z,26.71
2018-09-20T10:55:36.714Z,26.72
2018-09-20T10:56:36.359Z,26.75
2018-09-20T10:57:36.517Z,26.79
2018-09-20T10:58:36.565Z,26.79
2018-09-20T10:59:36.746Z,26.85
2018-09-20T11:00:36.660Z,26.82
2018-09-20T11:01:36.385Z,26.82
2018-09-20T11:02:36.362Z,26.84
2018-09-20T11:03:36.375Z,26.85
2018-09-20T11:04:36.358Z,26.84
2018-09-20T11:05:36.530Z,26.91
2018-09-20T11:06:37.072Z,26.89
2018-09-20T11:07:36.488Z,26.92
2018-09-20T11:08:36.371Z,26.96
2018-09-20T11:09:36.394Z,26.98
2018-09-20T11:10:36.840Z,26.99
2018-09-20T11:11:36.344Z,26.92
2018-09-20T11:12:36.513Z,26.91
2018-09-20T11:13:36.357Z,26.84
2018-09-20T11:14:36.395Z,26.84
2018-09-20T11:15:36.573Z,26.85
2018-09-20T11:16:36.564Z,26.94
2018-09-20T11:17:36.411Z,26.95
2018-09-20T11:18:36.452Z,26.88
2018-09-20T11:19:37.089Z,26.95
2018-09-20T11:20:36.676Z,26.95
2018-09-20T11:21:36.369Z,26.96
2018-09-20T11:22:36.588Z,27.01
2018-09-20T11:23:36.503Z,27.06
2018-09-20T11:24:36.488Z,27.15
2018-09-20T11:25:37.751Z,27.22
2018-09-20T11:26:36.471Z,27.22
2018-09-20T11:27:36.391Z,27.3
2018-09-20T11:28:36.429Z,27.33
2018-09-20T11:29:36.524Z,27.33
2018-09-20T11:30:36.477Z,27.34
2018-09-20T11:31:36.351Z,27.34
2018-09-20T11:32:36.364Z,27.32
2018-09-20T11:33:36.396Z,27.36
2018-09-20T11:34:36.582Z,27.41
2018-09-20T11:35:36.530Z,27.46
2018-09-20T11:36:36.346Z,27.43
2018-09-20T11:37:36.602Z,27.49
2018-09-20T11:38:36.361Z,27.53
2018-09-20T11:39:36.515Z,27.51
2018-09-20T11:40:36.632Z,27.57
2018-09-20T11:41:36.507Z,27.57
2018-09-20T11:42:36.524Z,27.54
2018-09-20T11:43:36.371Z,27.57
2018-09-20T11:44:36.345Z,27.67
2018-09-20T11:45:36.442Z,27.67
2018-09-20T11:46:36.565Z,27.71
2018-09-20T11:47:36.395Z,27.72
2018-09-20T11:48:36.555Z,27.65
2018-09-20T11:49:41.402Z,27.61
2018-09-20T11:50:41.396Z,27.64
2018-09-20T11:51:36.645Z,27.64
2018-09-20T11:52:36.713Z,27.68
2018-09-20T11:53:36.584Z,27.7
2018-09-20T11:54:36.608Z,27.71
2018-09-20T11:55:36.623Z,27.72
2018-09-20T11:56:36.334Z,27.77
2018-09-20T11:57:36.572Z,27.68
2018-09-20T11:58:36.333Z,27.68
2018-09-20T11:59:36.973Z,27.71
2018-09-20T12:00:36.455Z,27.72
2018-09-20T12:01:36.367Z,27.75
2018-09-20T12:02:36.494Z,27.7
2018-09-20T12:03:36.369Z,27.62
2018-09-20T12:04:36.611Z,27.61
2018-09-20T12:05:36.594Z,27.68
2018-09-20T12:06:36.492Z,27.74
2018-09-20T12:07:36.325Z,27.68
2018-09-20T12:08:36.350Z,27.67
2018-09-20T12:09:36.515Z,27.68
2018-09-20T12:10:36.623Z,27.67
2018-09-20T12:11:36.505Z,27.65
2018-09-20T12:12:36.442Z,27.64
2018-09-20T12:13:36.372Z,27.65
2018-09-20T12:14:36.560Z,27.67
2018-09-20T12:15:36.577Z,27.68
2018-09-20T12:16:36.505Z,27.61
2018-09-20T12:17:36.407Z,27.64
2018-09-20T12:18:36.454Z,27.68
2018-09-20T12:19:36.448Z,27.7
2018-09-20T12:20:36.396Z,27.77
2018-09-20T12:21:36.487Z,27.82
2018-09-20T12:22:36.544Z,27.87
2018-09-20T12:23:36.575Z,27.84
2018-09-20T12:24:36.613Z,27.89
2018-09-20T12:25:36.723Z,27.92
2018-09-20T12:26:36.388Z,27.96
2018-09-20T12:27:36.415Z,27.98
2018-09-20T12:28:36.436Z,28.01
2018-09-20T12:29:36.338Z,28.06
2018-09-20T12:30:36.377Z,27.99
2018-09-20T12:31:36.558Z,28.05
2018-09-20T12:32:36.598Z,28.02
2018-09-20T12:33:36.403Z,28.08
2018-09-20T12:34:36.356Z,28.05
2018-09-20T12:35:36.704Z,28.11
2018-09-20T12:36:36.412Z,28.13
2018-09-20T12:37:36.511Z,28.13
2018-09-20T12:38:36.899Z,28.09
2018-09-20T12:39:36.614Z,28.12
2018-09-20T12:40:36.721Z,28.11
2018-09-20T12:41:36.398Z,28.13
2018-09-20T12:42:36.497Z,28.16
2018-09-20T12:43:36.329Z,28.19
2018-09-20T12:44:36.415Z,28.15
2018-09-20T12:45:36.747Z,28.2
2018-09-20T12:46:36.567Z,28.24
2018-09-20T12:47:36.371Z,28.24
2018-09-20T12:48:36.579Z,28.24
2018-09-20T12:49:36.523Z,28.3
2018-09-20T12:50:36.400Z,28.34
2018-09-20T12:51:36.536Z,28.33
2018-09-20T12:52:36.468Z,28.3
2018-09-20T12:53:36.359Z,28.33
2018-09-20T12:54:36.560Z,28.36
2018-09-20T12:55:36.710Z,28.37